Terminal Aerodrome Forecast
Issued by NWS

Home | Current Version | Previous Version | Graphics & Text | Print | Product List | Glossary On
Versions: 1 2 3 4 5 6 7 8 9 10 11 12 13 14 15 16 17
000
FTUS43 KUNR 261804 RRA
TAFGCC
TAF
KGCC 261804Z 2618/2718 VRB05KT P6SM BKN015
     FM270100 15007KT P6SM SCT100
     FM271700 08006KT P6SM OVC015=

USA.gov is the U.S. government's official web portal to all federal, state and local government web resources and services.